sensor_id;sensor_type;location;lat;lon;timestamp;pressure;altitude;pressure_sealevel;temperature;humidity
61318;BME280;47201;40.428;-8.436;2022-12-07T00:01:12;100494.50;;;12.08;100.00
61318;BME280;47201;40.428;-8.436;2022-12-07T00:03:13;100501.41;;;12.16;100.00
61318;BME280;47201;40.428;-8.436;2022-12-07T00:05:14;100493.50;;;12.19;100.00
61318;BME280;47201;40.428;-8.436;2022-12-07T00:07:15;100489.06;;;12.25;100.00
61318;BME280;47201;40.428;-8.436;2022-12-07T00:09:17;100485.56;;;12.26;100.00
61318;BME280;47201;40.428;-8.436;2022-12-07T00:11:20;100479.44;;;12.27;100.00
61318;BME280;47201;40.428;-8.436;2022-12-07T00:13:21;100485.66;;;12.19;100.00
61318;BME280;47201;40.428;-8.436;2022-12-07T00:15:22;100486.59;;;12.12;100.00
61318;BME280;47201;40.428;-8.436;2022-12-07T00:17:23;100487.53;;;12.06;100.00
61318;BME280;47201;40.428;-8.436;2022-12-07T00:19:24;100475.38;;;12.01;100.00
61318;BME280;47201;40.428;-8.436;2022-12-07T00:21:27;100486.75;;;11.98;100.00
61318;BME280;47201;40.428;-8.436;2022-12-07T00:23:28;100480.66;;;11.95;100.00
61318;BME280;47201;40.428;-8.436;2022-12-07T00:25:30;100480.72;;;11.88;100.00
61318;BME280;47201;40.428;-8.436;2022-12-07T00:27:30;100480.69;;;11.90;100.00
61318;BME280;47201;40.428;-8.436;2022-12-07T00:29:31;100478.13;;;11.85;100.00
61318;BME280;47201;40.428;-8.436;2022-12-07T00:31:35;100486.75;;;11.98;100.00
61318;BME280;47201;40.428;-8.436;2022-12-07T00:33:39;100477.09;;;12.02;100.00
61318;BME280;47201;40.428;-8.436;2022-12-07T00:35:40;100479.56;;;12.16;100.00
61318;BME280;47201;40.428;-8.436;2022-12-07T00:37:40;100475.19;;;12.16;100.00
61318;BME280;47201;40.428;-8.436;2022-12-07T00:39:41;100475.25;;;12.13;100.00
61318;BME280;47201;40.428;-8.436;2022-12-07T00:41:42;100480.59;;;12.04;100.00
61318;BME280;47201;40.428;-8.436;2022-12-07T00:43:44;100483.28;;;11.98;100.00
61318;BME280;47201;40.428;-8.436;2022-12-07T00:45:45;100476.38;;;11.86;100.00
61318;BME280;47201;40.428;-8.436;2022-12-07T00:47:46;100482.53;;;11.83;100.00
61318;BME280;47201;40.428;-8.436;2022-12-07T00:49:47;100476.47;;;11.73;100.00
61318;BME280;47201;40.428;-8.436;2022-12-07T00:51:48;100465.09;;;11.79;100.00
61318;BME280;47201;40.428;-8.436;2022-12-07T00:53:49;100476.44;;;11.80;100.00
61318;BME280;47201;40.428;-8.436;2022-12-07T00:55:51;100473.88;;;11.72;100.00
61318;BME280;47201;40.428;-8.436;2022-12-07T00:57:53;100461.81;;;11.58;100.00
61318;BME280;47201;40.428;-8.436;2022-12-07T00:59:54;100458.47;;;11.41;100.00
61318;BME280;47201;40.428;-8.436;2022-12-07T01:01:57;100455.13;;;11.28;100.00
61318;BME280;47201;40.428;-8.436;2022-12-07T01:03:58;100452.50;;;11.25;100.00
61318;BME280;47201;40.428;-8.436;2022-12-07T01:06:01;100451.56;;;11.32;100.00
61318;BME280;47201;40.428;-8.436;2022-12-07T01:08:03;100441.09;;;11.34;100.00
61318;BME280;47201;40.428;-8.436;2022-12-07T01:10:04;100439.25;;;11.45;100.00
61318;BME280;47201;40.428;-8.436;2022-12-07T01:12:05;100440.09;;;11.49;100.00
61318;BME280;47201;40.428;-8.436;2022-12-07T01:14:06;100446.13;;;11.55;100.00
61318;BME280;47201;40.428;-8.436;2022-12-07T01:16:08;100444.34;;;11.61;100.00
61318;BME280;47201;40.428;-8.436;2022-12-07T01:18:11;100435.53;;;11.66;100.00
61318;BME280;47201;40.428;-8.436;2022-12-07T01:20:12;100432.97;;;11.62;100.00
61318;BME280;47201;40.428;-8.436;2022-12-07T01:22:13;100440.88;;;11.58;100.00
61318;BME280;47201;40.428;-8.436;2022-12-07T01:24:13;100435.75;;;11.45;100.00
61318;BME280;47201;40.428;-8.436;2022-12-07T01:26:17;100442.00;;;11.31;100.00
61318;BME280;47201;40.428;-8.436;2022-12-07T01:28:19;100433.41;;;11.14;100.00
61318;BME280;47201;40.428;-8.436;2022-12-07T01:30:19;100433.50;;;11.01;100.00
61318;BME280;47201;40.428;-8.436;2022-12-07T01:32:20;100436.16;;;10.97;100.00
61318;BME280;47201;40.428;-8.436;2022-12-07T01:34:21;100423.16;;;10.89;100.00
61318;BME280;47201;40.428;-8.436;2022-12-07T01:36:27;100413.53;;;10.89;100.00
61318;BME280;47201;40.428;-8.436;2022-12-07T01:38:30;100421.34;;;10.97;100.00
61318;BME280;47201;40.428;-8.436;2022-12-07T01:40:31;100421.31;;;11.00;100.00
61318;BME280;47201;40.428;-8.436;2022-12-07T01:42:33;100420.38;;;11.09;100.00
61318;BME280;47201;40.428;-8.436;2022-12-07T01:47:13;100407.13;;;11.31;100.00
61318;BME280;47201;40.428;-8.436;2022-12-07T01:49:41;100415.72;;;11.42;100.00
61318;BME280;47201;40.428;-8.436;2022-12-07T01:51:45;100406.91;;;11.52;100.00
61318;BME280;47201;40.428;-8.436;2022-12-07T01:53:46;100413.00;;;11.53;100.00
61318;BME280;47201;40.428;-8.436;2022-12-07T01:55:49;100419.22;;;11.42;100.00
61318;BME280;47201;40.428;-8.436;2022-12-07T01:57:54;100415.81;;;11.31;100.00
61318;BME280;47201;40.428;-8.436;2022-12-07T01:59:56;100407.22;;;11.18;100.00
61318;BME280;47201;40.428;-8.436;2022-12-07T02:01:57;100410.81;;;11.05;100.00
61318;BME280;47201;40.428;-8.436;2022-12-07T02:03:58;100413.59;;;10.86;100.00
61318;BME280;47201;40.428;-8.436;2022-12-07T02:05:59;100402.34;;;10.70;100.00
61318;BME280;47201;40.428;-8.436;2022-12-07T02:08:01;100404.22;;;10.54;100.00
61318;BME280;47201;40.428;-8.436;2022-12-07T02:10:20;100406.03;;;10.44;100.00
61318;BME280;47201;40.428;-8.436;2022-12-07T02:12:22;100415.63;;;10.36;100.00
61318;BME280;47201;40.428;-8.436;2022-12-07T02:14:24;100410.41;;;10.30;100.00
61318;BME280;47201;40.428;-8.436;2022-12-07T02:16:48;100399.97;;;10.28;100.00
61318;BME280;47201;40.428;-8.436;2022-12-07T02:21:09;100402.63;;;10.19;100.00
61318;BME280;47201;40.428;-8.436;2022-12-07T02:28:07;100393.91;;;10.20;100.00
61318;BME280;47201;40.428;-8.436;2022-12-07T02:30:15;100393.94;;;10.14;100.00
61318;BME280;47201;40.428;-8.436;2022-12-07T02:32:27;100392.22;;;10.11;100.00
61318;BME280;47201;40.428;-8.436;2022-12-07T02:34:56;100396.59;;;10.11;100.00
61318;BME280;47201;40.428;-8.436;2022-12-07T02:37:10;100390.50;;;10.12;100.00
61318;BME280;47201;40.428;-8.436;2022-12-07T02:39:20;100391.34;;;10.11;100.00
61318;BME280;47201;40.428;-8.436;2022-12-07T02:41:31;100386.09;;;10.17;100.00
61318;BME280;47201;40.428;-8.436;2022-12-07T02:43:41;100393.03;;;10.20;100.00
61318;BME280;47201;40.428;-8.436;2022-12-07T02:45:44;100388.69;;;10.22;100.00
61318;BME280;47201;40.428;-8.436;2022-12-07T02:47:49;100386.06;;;10.26;100.00
61318;BME280;47201;40.428;-8.436;2022-12-07T02:49:52;100373.00;;;10.20;100.00
61318;BME280;47201;40.428;-8.436;2022-12-07T02:51:53;100383.50;;;10.12;100.00
61318;BME280;47201;40.428;-8.436;2022-12-07T02:53:54;100378.34;;;10.00;100.00
61318;BME280;47201;40.428;-8.436;2022-12-07T02:55:54;100372.28;;;9.89;100.00
61318;BME280;47201;40.428;-8.436;2022-12-07T03:00:23;100373.25;;;9.64;100.00
61318;BME280;47201;40.428;-8.436;2022-12-07T03:05:52;100391.53;;;9.67;100.00
61318;BME280;47201;40.428;-8.436;2022-12-07T03:10:14;100391.50;;;9.66;100.00
61318;BME280;47201;40.428;-8.436;2022-12-07T03:12:22;100387.19;;;9.66;100.00
61318;BME280;47201;40.428;-8.436;2022-12-07T03:14:30;100383.66;;;9.72;100.00
61318;BME280;47201;40.428;-8.436;2022-12-07T03:16:39;100388.88;;;9.78;100.00
61318;BME280;47201;40.428;-8.436;2022-12-07T03:18:48;100400.16;;;9.80;100.00
61318;BME280;47201;40.428;-8.436;2022-12-07T03:20:53;100393.22;;;9.78;100.00
61318;BME280;47201;40.428;-8.436;2022-12-07T03:22:56;100389.75;;;9.74;100.00
61318;BME280;47201;40.428;-8.436;2022-12-07T03:25:00;100388.88;;;9.72;100.00
61318;BME280;47201;40.428;-8.436;2022-12-07T03:27:19;100376.72;;;9.65;100.00
61318;BME280;47201;40.428;-8.436;2022-12-07T03:29:25;100389.78;;;9.63;100.00
61318;BME280;47201;40.428;-8.436;2022-12-07T03:31:31;100387.19;;;9.59;100.00
61318;BME280;47201;40.428;-8.436;2022-12-07T03:33:41;100380.25;;;9.53;100.00
61318;BME280;47201;40.428;-8.436;2022-12-07T03:36:06;100370.69;;;9.52;100.00
61318;BME280;47201;40.428;-8.436;2022-12-07T03:38:45;100375.03;;;9.53;100.00
61318;BME280;47201;40.428;-8.436;2022-12-07T03:41:09;100368.94;;;9.39;100.00
61318;BME280;47201;40.428;-8.436;2022-12-07T03:43:12;100362.91;;;9.32;100.00
61318;BME280;47201;40.428;-8.436;2022-12-07T03:45:13;100368.09;;;9.35;100.00
61318;BME280;47201;40.428;-8.436;2022-12-07T03:47:31;100360.28;;;9.24;100.00
61318;BME280;47201;40.428;-8.436;2022-12-07T03:49:41;100358.59;;;9.14;100.00
61318;BME280;47201;40.428;-8.436;2022-12-07T03:54:10;100368.13;;;9.16;100.00
61318;BME280;47201;40.428;-8.436;2022-12-07T03:56:14;100359.44;;;9.14;100.00
61318;BME280;47201;40.428;-8.436;2022-12-07T03:58:19;100355.94;;;9.21;100.00
61318;BME280;47201;40.428;-8.436;2022-12-07T04:00:21;100353.34;;;9.25;100.00
61318;BME280;47201;40.428;-8.436;2022-12-07T04:02:25;100361.16;;;9.28;100.00
61318;BME280;47201;40.428;-8.436;2022-12-07T04:04:26;100355.06;;;9.27;100.00
61318;BME280;47201;40.428;-8.436;2022-12-07T04:06:28;100356.81;;;9.28;100.00
61318;BME280;47201;40.428;-8.436;2022-12-07T04:08:29;100349.84;;;9.29;100.00
61318;BME280;47201;40.428;-8.436;2022-12-07T04:10:29;100355.06;;;9.29;100.00
61318;BME280;47201;40.428;-8.436;2022-12-07T04:12:30;100348.09;;;9.32;100.00
61318;BME280;47201;40.428;-8.436;2022-12-07T04:14:31;100346.38;;;9.31;100.00
61318;BME280;47201;40.428;-8.436;2022-12-07T04:16:32;100348.13;;;9.26;100.00
61318;BME280;47201;40.428;-8.436;2022-12-07T04:18:32;100350.72;;;9.21;100.00
61318;BME280;47201;40.428;-8.436;2022-12-07T04:20:33;100355.97;;;9.14;100.00
61318;BME280;47201;40.428;-8.436;2022-12-07T04:22:34;100350.75;;;9.04;100.00
61318;BME280;47201;40.428;-8.436;2022-12-07T04:24:35;100338.59;;;8.99;100.00
61318;BME280;47201;40.428;-8.436;2022-12-07T04:26:35;100315.13;;;8.94;100.00
61318;BME280;47201;40.428;-8.436;2022-12-07T04:28:36;100319.50;;;9.03;100.00
61318;BME280;47201;40.428;-8.436;2022-12-07T04:30:37;100323.81;;;9.09;100.00
61318;BME280;47201;40.428;-8.436;2022-12-07T04:32:38;100321.19;;;9.18;100.00
61318;BME280;47201;40.428;-8.436;2022-12-07T04:34:39;100320.28;;;9.25;100.00
61318;BME280;47201;40.428;-8.436;2022-12-07T04:36:40;100320.31;;;9.22;100.00
61318;BME280;47201;40.428;-8.436;2022-12-07T04:38:41;100309.91;;;9.08;100.00
61318;BME280;47201;40.428;-8.436;2022-12-07T04:40:42;100320.34;;;9.13;100.00
61318;BME280;47201;40.428;-8.436;2022-12-07T04:42:43;100320.34;;;9.13;100.00
61318;BME280;47201;40.428;-8.436;2022-12-07T04:44:43;100314.22;;;9.17;100.00
61318;BME280;47201;40.428;-8.436;2022-12-07T04:46:45;100312.50;;;9.27;100.00
61318;BME280;47201;40.428;-8.436;2022-12-07T04:48:46;100315.03;;;9.44;100.00
61318;BME280;47201;40.428;-8.436;2022-12-07T04:50:48;100327.97;;;9.68;100.00
61318;BME280;47201;40.428;-8.436;2022-12-07T04:52:50;100327.97;;;9.75;100.00
61318;BME280;47201;40.428;-8.436;2022-12-07T04:54:50;100327.94;;;9.78;100.00
61318;BME280;47201;40.428;-8.436;2022-12-07T04:56:51;100328.84;;;9.75;100.00
61318;BME280;47201;40.428;-8.436;2022-12-07T04:58:53;100327.16;;;9.66;100.00
61318;BME280;47201;40.428;-8.436;2022-12-07T05:00:55;100318.47;;;9.55;100.00
61318;BME280;47201;40.428;-8.436;2022-12-07T05:02:55;100320.25;;;9.53;100.00
61318;BME280;47201;40.428;-8.436;2022-12-07T05:04:56;100330.66;;;9.47;100.00
61318;BME280;47201;40.428;-8.436;2022-12-07T05:06:57;100312.44;;;9.31;100.00
61318;BME280;47201;40.428;-8.436;2022-12-07T05:08:57;100314.22;;;9.29;100.00
61318;BME280;47201;40.428;-8.436;2022-12-07T05:10:59;100312.47;;;9.20;100.00
61318;BME280;47201;40.428;-8.436;2022-12-07T05:12:59;100314.25;;;9.14;100.00
61318;BME280;47201;40.428;-8.436;2022-12-07T05:15:00;100309.91;;;9.10;100.00
61318;BME280;47201;40.428;-8.436;2022-12-07T05:17:01;100310.81;;;9.04;100.00
61318;BME280;47201;40.428;-8.436;2022-12-07T05:19:02;100312.50;;;9.05;100.00
61318;BME280;47201;40.428;-8.436;2022-12-07T05:21:03;100307.28;;;9.05;100.00
61318;BME280;47201;40.428;-8.436;2022-12-07T05:23:04;100310.81;;;9.04;100.00
61318;BME280;47201;40.428;-8.436;2022-12-07T05:25:05;100310.78;;;9.10;100.00
61318;BME280;47201;40.428;-8.436;2022-12-07T05:27:05;100303.81;;;9.01;100.00
61318;BME280;47201;40.428;-8.436;2022-12-07T05:29:07;100303.00;;;8.82;100.00
61318;BME280;47201;40.428;-8.436;2022-12-07T05:31:08;100316.00;;;8.85;100.00
61318;BME280;47201;40.428;-8.436;2022-12-07T05:33:08;100317.75;;;8.83;100.00
61318;BME280;47201;40.428;-8.436;2022-12-07T05:35:09;100314.28;;;8.78;100.00
61318;BME280;47201;40.428;-8.436;2022-12-07T05:37:10;100304.75;;;8.69;100.00
61318;BME280;47201;40.428;-8.436;2022-12-07T05:39:11;100310.81;;;8.65;100.00
61318;BME280;47201;40.428;-8.436;2022-12-07T05:41:14;100296.94;;;8.59;100.00
61318;BME280;47201;40.428;-8.436;2022-12-07T05:43:33;100302.13;;;8.48;100.00
61318;BME280;47201;40.428;-8.436;2022-12-07T05:45:34;100302.09;;;8.40;100.00
61318;BME280;47201;40.428;-8.436;2022-12-07T05:47:35;100295.13;;;8.31;100.00
61318;BME280;47201;40.428;-8.436;2022-12-07T05:49:36;100299.50;;;8.32;100.00
61318;BME280;47201;40.428;-8.436;2022-12-07T05:51:37;100280.38;;;8.29;100.00
61318;BME280;47201;40.428;-8.436;2022-12-07T05:53:38;100277.75;;;8.25;100.00
61318;BME280;47201;40.428;-8.436;2022-12-07T05:55:38;100283.84;;;8.31;100.00
61318;BME280;47201;40.428;-8.436;2022-12-07T05:57:39;100277.78;;;8.33;100.00
61318;BME280;47201;40.428;-8.436;2022-12-07T05:59:40;100281.25;;;8.34;100.00
61318;BME280;47201;40.428;-8.436;2022-12-07T06:01:41;100285.59;;;8.35;100.00
61318;BME280;47201;40.428;-8.436;2022-12-07T06:03:41;100285.56;;;8.32;100.00
61318;BME280;47201;40.428;-8.436;2022-12-07T06:05:42;100283.84;;;8.31;100.00
61318;BME280;47201;40.428;-8.436;2022-12-07T06:07:43;100284.69;;;8.22;100.00
61318;BME280;47201;40.428;-8.436;2022-12-07T06:09:44;100289.91;;;8.23;100.00
61318;BME280;47201;40.428;-8.436;2022-12-07T06:11:45;100283.84;;;8.18;100.00
61318;BME280;47201;40.428;-8.436;2022-12-07T06:14:04;100286.44;;;8.15;100.00
61318;BME280;47201;40.428;-8.436;2022-12-07T06:16:05;100283.84;;;8.38;100.00
61318;BME280;47201;40.428;-8.436;2022-12-07T06:18:06;100270.88;;;8.52;100.00
61318;BME280;47201;40.428;-8.436;2022-12-07T06:20:07;100274.34;;;8.59;100.00
61318;BME280;47201;40.428;-8.436;2022-12-07T06:22:08;100261.31;;;8.64;100.00
61318;BME280;47201;40.428;-8.436;2022-12-07T06:24:11;100260.41;;;8.72;100.00
61318;BME280;47201;40.428;-8.436;2022-12-07T06:26:13;100266.50;;;8.88;100.00
61318;BME280;47201;40.428;-8.436;2022-12-07T06:28:14;100257.78;;;8.94;100.00
61318;BME280;47201;40.428;-8.436;2022-12-07T06:30:14;100260.38;;;9.02;100.00
61318;BME280;47201;40.428;-8.436;2022-12-07T06:32:15;100259.47;;;9.11;100.00
61318;BME280;47201;40.428;-8.436;2022-12-07T06:34:18;100257.75;;;9.13;100.00
61318;BME280;47201;40.428;-8.436;2022-12-07T06:36:20;100256.00;;;9.13;100.00
61318;BME280;47201;40.428;-8.436;2022-12-07T06:38:20;100255.13;;;9.16;100.00
61318;BME280;47201;40.428;-8.436;2022-12-07T06:40:21;100254.28;;;9.11;100.00
61318;BME280;47201;40.428;-8.436;2022-12-07T06:42:22;100251.69;;;9.08;100.00
61318;BME280;47201;40.428;-8.436;2022-12-07T06:44:23;100245.56;;;9.09;100.00
61318;BME280;47201;40.428;-8.436;2022-12-07T06:46:25;100243.00;;;9.02;100.00
61318;BME280;47201;40.428;-8.436;2022-12-07T06:48:26;100233.44;;;9.00;100.00
61318;BME280;47201;40.428;-8.436;2022-12-07T06:50:27;100228.22;;;9.03;100.00
61318;BME280;47201;40.428;-8.436;2022-12-07T06:52:27;100225.63;;;8.95;100.00
61318;BME280;47201;40.428;-8.436;2022-12-07T06:54:28;100231.72;;;8.94;100.00
61318;BME280;47201;40.428;-8.436;2022-12-07T06:56:30;100232.59;;;8.92;100.00
61318;BME280;47201;40.428;-8.436;2022-12-07T06:58:31;100224.75;;;8.99;100.00
61318;BME280;47201;40.428;-8.436;2022-12-07T07:00:32;100231.72;;;8.97;100.00
61318;BME280;47201;40.428;-8.436;2022-12-07T07:02:35;100229.13;;;8.93;100.00
61318;BME280;47201;40.428;-8.436;2022-12-07T07:04:35;100234.31;;;9.00;100.00
61318;BME280;47201;40.428;-8.436;2022-12-07T07:06:36;100228.22;;;9.01;100.00
61318;BME280;47201;40.428;-8.436;2022-12-07T07:08:38;100235.16;;;9.09;100.00
61318;BME280;47201;40.428;-8.436;2022-12-07T07:10:39;100229.97;;;9.05;100.00
61318;BME280;47201;40.428;-8.436;2022-12-07T07:12:39;100229.09;;;9.07;100.00
61318;BME280;47201;40.428;-8.436;2022-12-07T07:14:40;100231.66;;;9.16;100.00
61318;BME280;47201;40.428;-8.436;2022-12-07T07:16:42;100226.41;;;9.25;100.00
61318;BME280;47201;40.428;-8.436;2022-12-07T07:18:42;100233.31;;;9.32;100.00
61318;BME280;47201;40.428;-8.436;2022-12-07T07:20:43;100231.56;;;9.41;100.00
61318;BME280;47201;40.428;-8.436;2022-12-07T07:22:44;100225.47;;;9.39;100.00
61318;BME280;47201;40.428;-8.436;2022-12-07T07:24:45;100230.69;;;9.37;100.00
61318;BME280;47201;40.428;-8.436;2022-12-07T07:26:46;100222.91;;;9.31;100.00
61318;BME280;47201;40.428;-8.436;2022-12-07T07:28:46;100225.53;;;9.34;100.00
61318;BME280;47201;40.428;-8.436;2022-12-07T07:30:47;100234.22;;;9.28;100.00
61318;BME280;47201;40.428;-8.436;2022-12-07T07:32:48;100233.34;;;9.26;100.00
61318;BME280;47201;40.428;-8.436;2022-12-07T07:34:49;100229.91;;;9.18;100.00
61318;BME280;47201;40.428;-8.436;2022-12-07T07:36:49;100224.72;;;9.15;100.00
61318;BME280;47201;40.428;-8.436;2022-12-07T07:38:50;100229.09;;;9.11;100.00
61318;BME280;47201;40.428;-8.436;2022-12-07T07:40:51;100235.16;;;9.15;100.00
61318;BME280;47201;40.428;-8.436;2022-12-07T07:42:53;100242.13;;;9.11;100.00
61318;BME280;47201;40.428;-8.436;2022-12-07T07:44:54;100236.03;;;9.04;100.00
61318;BME280;47201;40.428;-8.436;2022-12-07T07:46:55;100235.16;;;9.02;100.00
61318;BME280;47201;40.428;-8.436;2022-12-07T07:48:56;100236.03;;;9.06;100.00
61318;BME280;47201;40.428;-8.436;2022-12-07T07:50:56;100235.16;;;9.09;100.00
61318;BME280;47201;40.428;-8.436;2022-12-07T07:52:57;100240.34;;;9.21;100.00
61318;BME280;47201;40.428;-8.436;2022-12-07T07:54:58;100228.16;;;9.20;100.00
61318;BME280;47201;40.428;-8.436;2022-12-07T07:56:59;100216.00;;;9.16;100.00
61318;BME280;47201;40.428;-8.436;2022-12-07T07:59:00;100219.50;;;9.16;100.00
61318;BME280;47201;40.428;-8.436;2022-12-07T08:01:05;100219.47;;;9.26;100.00
61318;BME280;47201;40.428;-8.436;2022-12-07T08:03:05;100229.88;;;9.27;100.00
61318;BME280;47201;40.428;-8.436;2022-12-07T08:05:06;100221.16;;;9.34;100.00
61318;BME280;47201;40.428;-8.436;2022-12-07T08:07:07;100223.72;;;9.44;100.00
61318;BME280;47201;40.428;-8.436;2022-12-07T08:09:08;100228.09;;;9.45;100.00
61318;BME280;47201;40.428;-8.436;2022-12-07T08:11:09;100227.16;;;9.53;100.00
61318;BME280;47201;40.428;-8.436;2022-12-07T08:13:10;100222.78;;;9.60;100.00
61318;BME280;47201;40.428;-8.436;2022-12-07T08:15:11;100231.44;;;9.67;100.00
61318;BME280;47201;40.428;-8.436;2022-12-07T08:17:12;100227.03;;;9.72;100.00
61318;BME280;47201;40.428;-8.436;2022-12-07T08:19:13;100226.16;;;9.73;100.00
61318;BME280;47201;40.428;-8.436;2022-12-07T08:21:14;100224.44;;;9.71;100.00
61318;BME280;47201;40.428;-8.436;2022-12-07T08:23:15;100223.59;;;9.70;100.00
61318;BME280;47201;40.428;-8.436;2022-12-07T08:25:16;100227.88;;;9.80;100.00
61318;BME280;47201;40.428;-8.436;2022-12-07T08:27:17;100232.19;;;9.89;100.00
61318;BME280;47201;40.428;-8.436;2022-12-07T08:29:18;100225.19;;;9.91;100.00
61318;BME280;47201;40.428;-8.436;2022-12-07T08:31:19;100229.53;;;9.92;100.00
61318;BME280;47201;40.428;-8.436;2022-12-07T08:33:20;100230.38;;;9.96;100.00
61318;BME280;47201;40.428;-8.436;2022-12-07T08:35:23;100230.38;;;9.99;100.00
61318;BME280;47201;40.428;-8.436;2022-12-07T08:37:23;100238.16;;;10.07;100.00
61318;BME280;47201;40.428;-8.436;2022-12-07T08:39:24;100251.19;;;10.10;100.00
61318;BME280;47201;40.428;-8.436;2022-12-07T08:41:25;100244.22;;;10.10;100.00
61318;BME280;47201;40.428;-8.436;2022-12-07T08:43:26;100241.63;;;10.12;100.00
61318;BME280;47201;40.428;-8.436;2022-12-07T08:45:26;100238.09;;;10.13;100.00
61318;BME280;47201;40.428;-8.436;2022-12-07T08:47:28;100240.66;;;10.21;100.00
61318;BME280;47201;40.428;-8.436;2022-12-07T08:49:36;100246.66;;;10.37;100.00
61318;BME280;47201;40.428;-8.436;2022-12-07T08:51:39;100243.09;;;10.47;100.00
61318;BME280;47201;40.428;-8.436;2022-12-07T08:53:40;100248.22;;;10.59;100.00
61318;BME280;47201;40.428;-8.436;2022-12-07T08:55:44;100251.56;;;10.74;100.00
61318;BME280;47201;40.428;-8.436;2022-12-07T08:57:45;100251.38;;;10.94;100.00
61318;BME280;47201;40.428;-8.436;2022-12-07T08:59:46;100243.22;;;11.22;100.00
61318;BME280;47201;40.428;-8.436;2022-12-07T09:01:47;100243.75;;;12.16;100.00
61318;BME280;47201;40.428;-8.436;2022-12-07T09:03:48;100241.22;;;14.32;100.00
61318;BME280;47201;40.428;-8.436;2022-12-07T09:05:48;100240.47;;;16.71;100.00
61318;BME280;47201;40.428;-8.436;2022-12-07T09:07:51;100238.25;;;18.47;86.65
61318;BME280;47201;40.428;-8.436;2022-12-07T09:09:54;100242.31;;;20.13;74.43
61318;BME280;47201;40.428;-8.436;2022-12-07T09:11:56;100245.47;;;21.43;65.26
61318;BME280;47201;40.428;-8.436;2022-12-07T09:13:57;100246.53;;;22.21;60.34
61318;BME280;47201;40.428;-8.436;2022-12-07T09:15:58;100249.47;;;22.00;60.08
61318;BME280;47201;40.428;-8.436;2022-12-07T09:17:58;100244.97;;;21.52;61.83
61318;BME280;47201;40.428;-8.436;2022-12-07T09:20:00;100241.69;;;21.81;62.71
61318;BME280;47201;40.428;-8.436;2022-12-07T09:22:01;100241.88;;;22.24;61.46
61318;BME280;47201;40.428;-8.436;2022-12-07T09:24:02;100248.13;;;22.55;62.38
61318;BME280;47201;40.428;-8.436;2022-12-07T09:26:04;100259.34;;;23.20;61.87
61318;BME280;47201;40.428;-8.436;2022-12-07T09:28:04;100256.00;;;23.74;61.70
61318;BME280;47201;40.428;-8.436;2022-12-07T09:30:06;100255.59;;;23.95;62.16
61318;BME280;47201;40.428;-8.436;2022-12-07T09:32:07;100254.38;;;24.40;62.98
61318;BME280;47201;40.428;-8.436;2022-12-07T09:34:08;100242.78;;;24.54;65.23
61318;BME280;47201;40.428;-8.436;2022-12-07T09:36:08;100251.31;;;24.60;66.11
61318;BME280;47201;40.428;-8.436;2022-12-07T09:38:10;100250.53;;;24.85;66.57
61318;BME280;47201;40.428;-8.436;2022-12-07T09:40:11;100254.38;;;24.13;70.07
61318;BME280;47201;40.428;-8.436;2022-12-07T09:44:25;100235.91;;;24.10;71.73
61318;BME280;47201;40.428;-8.436;2022-12-07T09:46:27;100233.22;;;24.37;72.59
61318;BME280;47201;40.428;-8.436;2022-12-07T09:48:32;100224.97;;;24.81;71.65
61318;BME280;47201;40.428;-8.436;2022-12-07T09:50:33;100225.72;;;25.34;71.17
61318;BME280;47201;40.428;-8.436;2022-12-07T09:52:34;100226.81;;;25.69;69.97
61318;BME280;47201;40.428;-8.436;2022-12-07T09:54:42;100221.03;;;25.38;71.78
61318;BME280;47201;40.428;-8.436;2022-12-07T09:56:44;100225.84;;;26.32;70.39
61318;BME280;47201;40.428;-8.436;2022-12-07T09:58:45;100205.81;;;26.00;70.39
61318;BME280;47201;40.428;-8.436;2022-12-07T10:00:46;100222.75;;;25.76;72.02
61318;BME280;47201;40.428;-8.436;2022-12-07T10:02:58;100217.19;;;25.16;74.47
61318;BME280;47201;40.428;-8.436;2022-12-07T10:04:59;100213.25;;;24.56;76.04
61318;BME280;47201;40.428;-8.436;2022-12-07T10:07:00;100216.03;;;23.59;78.83
61318;BME280;47201;40.428;-8.436;2022-12-07T10:09:01;100202.31;;;23.51;79.45
61318;BME280;47201;40.428;-8.436;2022-12-07T10:11:03;100215.72;;;23.50;79.35
61318;BME280;47201;40.428;-8.436;2022-12-07T10:13:09;100216.00;;;23.16;79.89
61318;BME280;47201;40.428;-8.436;2022-12-07T10:15:11;100212.41;;;23.03;81.23
61318;BME280;47201;40.428;-8.436;2022-12-07T10:17:38;100213.28;;;22.58;81.89
61318;BME280;47201;40.428;-8.436;2022-12-07T10:19:44;100204.59;;;22.85;81.79
61318;BME280;47201;40.428;-8.436;2022-12-07T10:22:09;100197.94;;;22.92;81.46
61318;BME280;47201;40.428;-8.436;2022-12-07T10:28:34;100191.25;;;23.85;79.08
61318;BME280;47201;40.428;-8.436;2022-12-07T10:30:56;100209.31;;;24.62;76.55
61318;BME280;47201;40.428;-8.436;2022-12-07T10:33:36;100173.00;;;24.98;75.17
61318;BME280;47201;40.428;-8.436;2022-12-07T10:35:49;100207.88;;;24.96;74.69
61318;BME280;47201;40.428;-8.436;2022-12-07T10:37:51;100193.44;;;24.20;77.36
61318;BME280;47201;40.428;-8.436;2022-12-07T10:39:55;100199.72;;;24.59;76.72
61318;BME280;47201;40.428;-8.436;2022-12-07T10:41:58;100187.94;;;25.26;75.69
61318;BME280;47201;40.428;-8.436;2022-12-07T10:43:59;100179.38;;;25.47;74.62
61318;BME280;47201;40.428;-8.436;2022-12-07T10:46:26;100181.53;;;25.29;74.93
61318;BME280;47201;40.428;-8.436;2022-12-07T10:48:46;100176.97;;;25.05;76.00
61318;BME280;47201;40.428;-8.436;2022-12-07T10:51:12;100169.19;;;24.89;77.00
61318;BME280;47201;40.428;-8.436;2022-12-07T10:56:01;100166.88;;;25.22;75.75
61318;BME280;47201;40.428;-8.436;2022-12-07T11:00:36;100168.25;;;25.40;75.57
61318;BME280;47201;40.428;-8.436;2022-12-07T11:02:43;100165.16;;;25.46;75.81
61318;BME280;47201;40.428;-8.436;2022-12-07T11:09:49;100158.38;;;25.54;76.03
61318;BME280;47201;40.428;-8.436;2022-12-07T11:14:35;100150.72;;;25.85;74.73